Time;durP1;ratioP1;P1;durP2;ratioP2;P2;SDS_P1;SDS_P2;PMS_P1;PMS_P2;Temp;Humidity;BMP_temperature;BMP_pressure;BME280_temperature;BME280_humidity;BME280_pressure;Samples;Min_cycle;Max_cycle;Signal;HPM_P1;HPM_P2
2023/03/21 00:00:39;;;;;;;12.35;11.15;;;;;;;8.92;100.00;101663.34;6159705;23;20018;-73
2023/03/21 00:03:07;;;;;;;12.52;11.30;;;;;;;8.89;100.00;101655.44;6133502;23;20014;-74
2023/03/21 00:05:41;;;;;;;13.45;12.05;;;;;;;8.87;100.00;101652.44;6159202;23;20014;-74
2023/03/21 00:08:08;;;;;;;12.60;10.80;;;;;;;8.87;100.00;101655.84;6132731;23;20117;-74
2023/03/21 00:10:35;;;;;;;14.52;12.13;;;;;;;8.86;100.00;101657.00;6158649;23;20018;-73
2023/03/21 00:13:12;;;;;;;12.63;11.32;;;;;;;8.87;100.00;101655.84;6159303;23;20014;-73
2023/03/21 00:15:49;;;;;;;17.00;10.40;;;;;;;8.85;100.00;101647.53;6159577;23;20014;-73
2023/03/21 00:18:31;;;;;;;11.87;10.77;;;;;;;8.86;100.00;101653.59;6158986;23;20018;-73
2023/03/21 00:20:58;;;;;;;12.50;10.70;;;;;;;8.85;100.00;101655.50;6133302;23;20040;-73
2023/03/21 00:23:45;;;;;;;13.23;11.25;;;;;;;8.85;100.00;101644.13;6159587;23;20101;-73
2023/03/21 00:26:13;;;;;;;13.20;10.80;;;;;;;8.85;100.00;101649.44;6158733;23;20089;-73
2023/03/21 00:28:41;;;;;;;11.75;10.55;;;;;;;8.85;100.00;101646.78;6159455;23;20022;-74
2023/03/21 00:31:08;;;;;;;12.38;11.07;;;;;;;8.85;100.00;101646.78;6133498;23;20089;-73
2023/03/21 00:33:37;;;;;;;9.75;8.90;;;;;;;8.83;100.00;101641.13;6159591;23;20021;-73
2023/03/21 00:36:06;;;;;;;12.50;10.50;;;;;;;8.82;100.00;101642.28;6133040;23;20022;-74
2023/03/21 00:38:33;;;;;;;12.23;10.02;;;;;;;8.82;100.00;101639.63;6132400;23;20017;-74
2023/03/21 00:41:03;;;;;;;11.35;10.02;;;;;;;8.79;100.00;101643.88;6132822;23;20077;-74
2023/03/21 00:43:46;;;;;;;13.45;9.48;;;;;;;8.79;100.00;101638.56;6133673;23;20018;-74
2023/03/21 00:46:14;;;;;;;9.73;8.80;;;;;;;8.80;100.00;101637.38;6159054;23;20018;-74
2023/03/21 00:48:41;;;;;;;12.70;9.65;;;;;;;8.78;100.00;101637.06;6159570;23;20022;-74
2023/03/21 00:51:25;;;;;;;10.73;9.50;;;;;;;8.77;100.00;101635.56;6132559;23;20022;-74
2023/03/21 00:53:54;;;;;;;10.18;9.18;;;;;;;8.78;100.00;101634.41;6158683;23;20073;-73
2023/03/21 00:56:21;;;;;;;11.00;9.95;;;;;;;8.77;100.00;101630.25;6158522;23;20018;-73
2023/03/21 00:58:48;;;;;;;10.85;9.75;;;;;;;8.79;100.00;101622.63;6159294;23;20014;-73
2023/03/21 01:01:15;;;;;;;10.57;9.55;;;;;;;8.80;100.00;101618.78;6132207;23;20053;-73
2023/03/21 01:03:41;;;;;;;11.02;9.93;;;;;;;8.79;100.00;101617.31;6159381;23;20013;-73
2023/03/21 01:06:12;;;;;;;11.13;10.02;;;;;;;8.79;100.00;101611.25;6132445;23;20065;-74
2023/03/21 01:08:41;;;;;;;11.27;10.18;;;;;;;8.78;100.00;101612.41;6158614;23;20018;-73
2023/03/21 01:11:22;;;;;;;11.82;10.70;;;;;;;8.77;100.00;101606.34;6158422;23;20073;-73
2023/03/21 01:13:49;;;;;;;12.18;11.02;;;;;;;8.77;100.00;101605.59;6159285;23;20093;-73
2023/03/21 01:16:24;;;;;;;13.13;11.75;;;;;;;8.76;100.00;101607.50;6158583;23;20044;-73
2023/03/21 01:18:51;;;;;;;14.27;12.07;;;;;;;8.77;100.00;101595.75;6159245;23;20021;-74
2023/03/21 01:21:19;;;;;;;14.75;12.57;;;;;;;8.77;100.00;101593.09;6158457;23;20482;-73
2023/03/21 01:23:46;;;;;;;14.57;13.05;;;;;;;8.77;100.00;101597.63;6158553;23;20127;-73
2023/03/21 01:26:14;;;;;;;14.35;12.85;;;;;;;8.75;100.00;101592.00;6132691;23;20014;-73
2023/03/21 01:28:44;;;;;;;13.68;12.25;;;;;;;8.76;100.00;101588.19;6132156;23;20045;-73
2023/03/21 01:31:13;;;;;;;14.27;12.77;;;;;;;8.77;100.00;101593.09;6132180;23;20453;-73
2023/03/21 01:33:41;;;;;;;18.13;13.50;;;;;;;8.78;100.00;101591.19;6159094;23;20416;-73
2023/03/21 01:36:14;;;;;;;16.20;13.85;;;;;;;8.78;100.00;101585.88;6159107;23;20014;-73
2023/03/21 01:38:42;;;;;;;15.13;13.55;;;;;;;8.77;100.00;101582.47;6132241;23;20053;-73
2023/03/21 01:41:37;;;;;;;16.88;13.65;;;;;;;8.76;100.00;101586.28;6132080;23;20413;-73
2023/03/21 01:44:18;;;;;;;18.30;13.77;;;;;;;8.77;100.00;101582.47;6156268;23;20049;-73
2023/03/21 01:46:52;;;;;;;20.00;14.35;;;;;;;8.76;100.00;101578.31;6158617;23;20026;-73
2023/03/21 01:50:02;;;;;;;16.90;13.95;;;;;;;8.77;100.00;101579.06;6153994;23;20452;-73
2023/03/21 01:52:45;;;;;;;17.42;14.02;;;;;;;8.74;100.00;101572.66;6131590;23;20022;-74
2023/03/21 01:55:17;;;;;;;19.45;14.68;;;;;;;8.73;100.00;101567.75;6131639;23;20109;-75
2023/03/21 01:57:53;;;;;;;18.38;14.07;;;;;;;8.73;100.00;101563.19;6132624;23;20401;-74
2023/03/21 02:00:54;;;;;;;20.58;15.07;;;;;;;8.71;100.00;101564.75;6147271;23;20503;-73
2023/03/21 02:03:36;;;;;;;18.95;14.65;;;;;;;8.69;100.00;101554.53;6132901;23;20022;-72
2023/03/21 02:06:30;;;;;;;22.95;16.02;;;;;;;8.69;100.00;101557.19;6142725;23;20054;-73
2023/03/21 02:09:09;;;;;;;20.73;16.13;;;;;;;8.68;100.00;101545.81;6133826;23;20050;-73
2023/03/21 02:11:37;;;;;;;22.20;15.40;;;;;;;8.67;100.00;101543.56;6133526;23;20097;-73
2023/03/21 02:14:05;;;;;;;21.30;16.88;;;;;;;8.67;100.00;101552.28;6159966;23;20022;-73
2023/03/21 02:17:17;;;;;;;22.02;17.23;;;;;;;8.65;100.00;101545.88;6133828;23;20033;-73
2023/03/21 02:20:25;;;;;;;22.80;16.20;;;;;;;8.64;100.00;101537.16;6133520;23;20042;-73
2023/03/21 02:23:13;;;;;;;21.77;15.88;;;;;;;8.64;100.00;101539.81;6021529;23;20339;-76
2023/03/21 02:26:01;;;;;;;17.92;15.60;;;;;;;8.61;100.00;101537.97;6069463;23;20027;-73
2023/03/21 02:28:39;;;;;;;19.95;15.95;;;;;;;8.62;100.00;101536.06;6068815;23;20482;-74
2023/03/21 02:31:25;;;;;;;21.05;16.23;;;;;;;8.62;100.00;101533.41;6045180;23;20026;-75
2023/03/21 02:33:59;;;;;;;19.55;16.20;;;;;;;8.62;100.00;101534.16;6045283;23;20113;-74
2023/03/21 02:36:44;;;;;;;25.40;16.55;;;;;;;8.63;100.00;101529.63;6043954;23;20024;-74
2023/03/21 02:39:51;;;;;;;22.67;16.75;;;;;;;8.60;100.00;101525.13;6044600;23;20023;-75
2023/03/21 02:42:49;;;;;;;24.15;16.58;;;;;;;8.62;100.00;101528.13;6068773;23;20019;-75
2023/03/21 02:45:32;;;;;;;20.65;15.73;;;;;;;8.60;100.00;101520.56;6021232;23;20016;-74
2023/03/21 02:48:04;;;;;;;25.25;17.20;;;;;;;8.61;100.00;101516.00;6045014;23;20031;-74
2023/03/21 02:50:36;;;;;;;23.88;16.60;;;;;;;8.61;100.00;101513.34;6043381;23;20027;-75
2023/03/21 02:53:06;;;;;;;25.30;16.08;;;;;;;8.59;100.00;101507.69;6069202;23;20023;-74
2023/03/21 02:55:36;;;;;;;22.45;16.25;;;;;;;8.59;100.00;101511.09;6044769;23;20244;-74
2023/03/21 02:58:06;;;;;;;24.42;16.80;;;;;;;8.60;100.00;101509.94;6071777;23;20085;-74
2023/03/21 03:00:46;;;;;;;20.25;15.95;;;;;;;8.59;100.00;101507.69;6133438;23;20046;-74
2023/03/21 03:03:22;;;;;;;21.48;16.63;;;;;;;8.60;100.00;101501.97;6132511;23;20073;-74
2023/03/21 03:06:03;;;;;;;26.33;16.63;;;;;;;8.60;100.00;101506.53;6132881;23;20419;-74
2023/03/21 03:08:41;;;;;;;26.60;16.60;;;;;;;8.60;100.00;101504.63;6132274;23;20019;-74
2023/03/21 03:11:30;;;;;;;24.42;15.18;;;;;;;8.60;100.00;101499.31;6159181;23;20018;-74
2023/03/21 03:14:52;;;;;;;25.58;14.50;;;;;;;8.60;100.00;101503.88;6133185;23;20128;-74
2023/03/21 03:17:37;;;;;;;20.80;14.27;;;;;;;8.59;100.00;101508.44;6022638;23;20027;-74
2023/03/21 03:20:18;;;;;;;25.52;15.07;;;;;;;8.59;100.00;101502.38;6044352;23;20031;-74
2023/03/21 03:23:04;;;;;;;19.75;13.88;;;;;;;8.58;100.00;101498.97;6044921;23;20026;-74
2023/03/21 03:25:45;;;;;;;20.20;13.90;;;;;;;8.58;100.00;101509.59;6044276;23;20026;-74
2023/03/21 03:28:18;;;;;;;20.70;14.00;;;;;;;8.58;100.00;101495.56;6043918;23;20458;-74
2023/03/21 03:30:46;;;;;;;24.52;13.60;;;;;;;8.58;100.00;101498.22;6068830;23;20037;-74
2023/03/21 03:33:34;;;;;;;23.58;13.38;;;;;;;8.56;100.00;101495.97;6043362;23;20023;-74
2023/03/21 03:36:02;;;;;;;19.00;14.45;;;;;;;8.56;100.00;101493.34;6044728;23;20052;-74
2023/03/21 03:38:37;;;;;;;21.55;13.55;;;;;;;8.55;100.00;101497.13;6068520;23;20019;-74
2023/03/21 03:41:20;;;;;;;21.10;14.40;;;;;;;8.54;100.00;101498.28;6044425;23;20044;-74
2023/03/21 03:43:56;;;;;;;23.50;14.27;;;;;;;8.53;100.00;101494.13;6044546;23;20072;-74
2023/03/21 03:46:38;;;;;;;18.60;14.07;;;;;;;8.54;100.00;101497.53;6043728;23;20444;-74
2023/03/21 03:49:15;;;;;;;19.98;14.30;;;;;;;8.53;100.00;101490.75;6044269;23;20047;-75
2023/03/21 03:51:53;;;;;;;24.05;13.95;;;;;;;8.52;100.00;101492.63;6102619;23;20543;-74
2023/03/21 03:54:43;;;;;;;20.38;14.43;;;;;;;8.51;100.00;101482.44;6158531;23;20096;-74
2023/03/21 03:57:12;;;;;;;20.83;14.30;;;;;;;8.50;100.00;101481.69;6132745;23;20015;-75
2023/03/21 03:59:41;;;;;;;20.60;15.23;;;;;;;8.51;100.00;101487.75;6132843;23;20463;-75
2023/03/21 04:02:20;;;;;;;19.00;15.13;;;;;;;8.50;100.00;101483.59;6109946;23;20337;-75
2023/03/21 04:04:51;;;;;;;19.80;15.10;;;;;;;8.49;100.00;101482.84;6133305;23;20045;-75
2023/03/21 04:07:20;;;;;;;24.88;16.15;;;;;;;8.49;100.00;101482.09;6132725;23;20064;-74
2023/03/21 04:09:49;;;;;;;21.17;15.60;;;;;;;8.51;100.00;101482.44;6133017;23;20017;-75
2023/03/21 04:12:18;;;;;;;21.95;14.98;;;;;;;8.49;100.00;101472.22;6132168;23;20066;-74
2023/03/21 04:15:03;;;;;;;22.02;15.32;;;;;;;8.50;100.00;101479.03;6159743;23;20022;-74
2023/03/21 04:17:40;;;;;;;22.85;16.10;;;;;;;8.49;100.00;101472.22;6132355;23;20022;-74
2023/03/21 04:20:08;;;;;;;24.95;16.13;;;;;;;8.48;100.00;101470.72;6132872;23;20045;-74
2023/03/21 04:22:44;;;;;;;25.98;15.77;;;;;;;8.50;100.00;101468.41;6110754;23;20034;-74
2023/03/21 04:25:12;;;;;;;22.33;15.88;;;;;;;8.51;100.00;101466.50;6131624;23;20480;-75
2023/03/21 04:27:54;;;;;;;25.15;15.35;;;;;;;8.50;100.00;101467.66;6132992;23;20046;-74
2023/03/21 04:30:41;;;;;;;24.23;15.73;;;;;;;8.50;100.00;101476.38;6158037;23;20030;-74
2023/03/21 04:33:26;;;;;;;23.25;15.70;;;;;;;8.48;100.00;101468.06;6132280;23;20093;-75
2023/03/21 04:35:57;;;;;;;27.60;16.77;;;;;;;8.49;100.00;101468.81;6132971;23;20018;-74
2023/03/21 04:38:29;;;;;;;24.55;17.02;;;;;;;8.48;100.00;101472.63;6132594;23;20018;-74
2023/03/21 04:40:59;;;;;;;21.38;15.63;;;;;;;8.46;100.00;101462.41;6132183;23;20515;-74
2023/03/21 04:43:29;;;;;;;23.52;16.60;;;;;;;8.47;100.00;101460.50;6107991;23;20566;-75
2023/03/21 04:45:56;;;;;;;20.52;16.08;;;;;;;8.45;100.00;101458.28;6158875;23;20391;-74
2023/03/21 04:48:23;;;;;;;26.67;16.73;;;;;;;8.45;100.00;101462.81;6131900;23;20032;-74
2023/03/21 04:50:51;;;;;;;26.58;17.38;;;;;;;8.45;100.00;101460.16;6132777;23;20073;-74
2023/03/21 04:53:17;;;;;;;28.58;16.48;;;;;;;8.46;100.00;101459.78;6132072;23;20026;-74
2023/03/21 04:55:44;;;;;;;31.77;16.63;;;;;;;8.44;100.00;101453.38;6132754;23;20022;-74
2023/03/21 04:58:11;;;;;;;26.60;14.90;;;;;;;8.42;100.00;101451.13;6132463;23;20014;-74
2023/03/21 05:00:37;;;;;;;23.70;16.15;;;;;;;8.43;100.00;101457.19;6158334;23;20022;-74
2023/03/21 05:03:08;;;;;;;21.95;15.70;;;;;;;8.43;100.00;101457.19;6132774;23;20022;-74
2023/03/21 05:05:36;;;;;;;29.67;17.97;;;;;;;8.43;100.00;101454.53;6159297;23;20085;-74
2023/03/21 05:08:04;;;;;;;27.27;16.02;;;;;;;8.42;100.00;101460.97;6132875;23;20105;-74
2023/03/21 05:10:31;;;;;;;22.42;15.80;;;;;;;8.42;100.00;101468.94;6158502;23;20026;-75
2023/03/21 05:12:59;;;;;;;21.83;14.82;;;;;;;8.41;100.00;101465.53;6132760;23;20028;-74
2023/03/21 05:15:26;;;;;;;27.25;15.35;;;;;;;8.41;100.00;101470.09;6131300;23;20460;-74
2023/03/21 05:17:53;;;;;;;23.52;13.15;;;;;;;8.39;100.00;101459.91;6133000;23;20042;-74
2023/03/21 05:20:20;;;;;;;29.15;12.27;;;;;;;8.39;100.00;101453.88;6132216;23;20033;-74
2023/03/21 05:22:49;;;;;;;20.48;12.80;;;;;;;8.36;100.00;101455.41;6132501;23;20468;-74
2023/03/21 05:25:20;;;;;;;20.20;12.55;;;;;;;8.37;100.00;101456.16;6132123;23;20018;-74
2023/03/21 05:28:01;;;;;;;21.38;13.07;;;;;;;8.36;100.00;101450.13;6132604;23;20022;-74
2023/03/21 05:30:29;;;;;;;18.10;11.77;;;;;;;8.37;100.00;101441.00;6131108;23;20033;-74
2023/03/21 05:32:59;;;;;;;22.85;12.85;;;;;;;8.38;100.00;101447.06;6132566;23;20026;-74
2023/03/21 05:35:26;;;;;;;18.50;12.13;;;;;;;8.38;100.00;101447.06;6158262;23;20049;-75
2023/03/21 05:37:56;;;;;;;19.77;12.38;;;;;;;8.36;100.00;101447.47;6131919;23;20112;-74
2023/03/21 05:40:24;;;;;;;25.15;11.75;;;;;;;8.35;100.00;101445.97;6107739;23;20234;-74
2023/03/21 05:42:55;;;;;;;19.00;12.00;;;;;;;8.32;100.00;101442.22;6132462;23;20046;-75
2023/03/21 05:45:23;;;;;;;22.17;12.25;;;;;;;8.30;100.00;101436.53;6131225;23;20017;-74
2023/03/21 05:47:50;;;;;;;16.48;10.93;;;;;;;8.31;100.00;101439.94;6131990;23;20032;-75
2023/03/21 05:50:19;;;;;;;17.80;10.65;;;;;;;8.31;100.00;101442.59;6131940;23;20025;-74
2023/03/21 05:52:59;;;;;;;15.68;10.57;;;;;;;8.30;100.00;101441.84;6132685;23;20030;-74
2023/03/21 05:55:25;;;;;;;16.45;10.38;;;;;;;8.32;100.00;101441.44;6158628;23;20022;-75
2023/03/21 05:57:52;;;;;;;24.23;10.68;;;;;;;8.32;100.00;101438.78;6131773;23;20061;-74
2023/03/21 06:00:24;;;;;;;19.63;10.35;;;;;;;8.32;100.00;101442.22;6131004;23;20022;-75
2023/03/21 06:03:09;;;;;;;21.27;10.80;;;;;;;8.34;100.00;101444.47;6156308;23;20101;-75
2023/03/21 06:05:54;;;;;;;15.43;9.93;;;;;;;8.34;100.00;101433.84;6131904;23;20109;-75
2023/03/21 06:08:24;;;;;;;18.45;10.43;;;;;;;8.35;100.00;101440.66;6131446;23;20014;-75
2023/03/21 06:10:51;;;;;;;15.45;10.57;;;;;;;8.35;100.00;101436.09;6132249;23;20021;-75
2023/03/21 06:13:17;;;;;;;19.08;10.80;;;;;;;8.35;100.00;101441.41;6130993;23;20026;-75
2023/03/21 06:15:44;;;;;;;20.83;10.35;;;;;;;8.36;100.00;101439.50;6158661;23;20014;-75
2023/03/21 06:18:15;;;;;;;17.17;10.70;;;;;;;8.35;100.00;101444.06;6130972;23;20022;-75
2023/03/21 06:20:53;;;;;;;17.10;10.02;;;;;;;8.34;100.00;101439.16;6132605;23;20047;-75
2023/03/21 06:23:20;;;;;;;18.08;10.52;;;;;;;8.34;100.00;101437.25;6131484;23;20061;-75
2023/03/21 06:25:47;;;;;;;12.07;9.77;;;;;;;8.34;100.00;101439.91;6132139;23;20134;-75
2023/03/21 06:28:14;;;;;;;19.60;11.45;;;;;;;8.34;100.00;101433.84;6130784;23;20017;-75
2023/03/21 06:30:40;;;;;;;19.08;11.00;;;;;;;8.34;100.00;101434.59;6131563;23;20499;-75
2023/03/21 06:33:22;;;;;;;;;;;;;;;8.38;100.00;101436.44;6131463;23;20041;-75
2023/03/21 06:35:51;;;;;;;18.15;10.30;;;;;;;8.39;100.00;101433.38;6107929;23;19924;-75
2023/03/21 06:38:19;;;;;;;15.68;9.55;;;;;;;8.40;100.00;101442.09;6130763;23;20022;-75
2023/03/21 06:40:47;;;;;;;15.90;9.60;;;;;;;8.41;100.00;101435.59;6131648;23;20100;-76
2023/03/21 06:43:15;;;;;;;20.30;10.07;;;;;;;8.40;100.00;101442.81;6157366;23;20078;-76
2023/03/21 06:45:42;;;;;;;18.15;9.95;;;;;;;8.42;100.00;101445.06;6131587;23;20022;-76
2023/03/21 06:48:10;;;;;;;15.35;9.63;;;;;;;8.43;100.00;101438.59;6131444;23;20053;-76
2023/03/21 06:50:48;;;;;;;16.33;10.68;;;;;;;8.43;100.00;101442.00;6133817;23;20021;-76
2023/03/21 06:53:16;;;;;;;18.20;9.50;;;;;;;8.44;100.00;101440.09;6131288;23;20538;-76
2023/03/21 06:56:01;;;;;;;16.85;10.30;;;;;;;8.44;100.00;101440.84;6157578;23;20452;-76
2023/03/21 06:58:30;;;;;;;18.85;9.68;;;;;;;8.44;100.00;101440.84;6157826;23;20014;-76
2023/03/21 07:00:58;;;;;;;18.80;10.13;;;;;;;8.45;100.00;101441.59;6131979;23;20449;-76
2023/03/21 07:03:26;;;;;;;14.13;9.48;;;;;;;8.45;100.00;101438.94;6133585;23;20487;-76
2023/03/21 07:05:52;;;;;;;18.77;10.50;;;;;;;8.45;100.00;101439.69;6160580;23;20014;-77
2023/03/21 07:08:21;;;;;;;18.60;9.77;;;;;;;8.49;100.00;101436.97;6133409;23;20017;-75
2023/03/21 07:10:47;;;;;;;16.40;9.50;;;;;;;8.49;100.00;101437.72;6133277;23;20024;-75
2023/03/21 07:13:15;;;;;;;18.70;9.48;;;;;;;8.53;100.00;101440.31;6133505;23;20511;-75
2023/03/21 07:16:01;;;;;;;16.13;8.70;;;;;;;8.55;100.00;101438.75;6113605;23;20024;-76
2023/03/21 07:18:29;;;;;;;14.20;8.70;;;;;;;8.55;100.00;101443.31;6160215;23;20038;-75
2023/03/21 07:20:56;;;;;;;15.57;8.57;;;;;;;8.57;100.00;101441.75;6133844;23;20018;-76
2023/03/21 07:23:24;;;;;;;14.77;8.40;;;;;;;8.61;100.00;101447.00;6133659;23;20465;-77
2023/03/21 07:25:53;;;;;;;16.05;9.32;;;;;;;8.65;100.00;101447.69;6133265;23;20483;-77
2023/03/21 07:28:21;;;;;;;16.35;8.65;;;;;;;8.68;100.00;101450.25;6133565;23;20018;-76
2023/03/21 07:30:54;;;;;;;16.00;8.38;;;;;;;8.71;100.00;101451.34;6133927;23;20026;-77
2023/03/21 07:33:22;;;;;;;14.82;8.63;;;;;;;8.74;100.00;101449.78;6159799;23;20022;-76
2023/03/21 07:35:50;;;;;;;14.48;8.98;;;;;;;8.75;100.00;101446.72;6133985;23;20022;-76
2023/03/21 07:38:18;;;;;;;14.57;9.23;;;;;;;8.77;100.00;101455.03;6133564;23;20054;-76
2023/03/21 07:40:46;;;;;;;14.95;9.00;;;;;;;8.77;100.00;101446.31;6159803;23;20496;-78
2023/03/21 07:43:14;;;;;;;15.63;8.05;;;;;;;8.77;100.00;101441.75;6160138;23;20021;-77
2023/03/21 07:45:43;;;;;;;12.70;8.27;;;;;;;8.80;100.00;101443.56;6133457;23;20398;-77
2023/03/21 07:48:16;;;;;;;16.88;8.38;;;;;;;8.83;100.00;101436.69;6159650;23;20018;-76
2023/03/21 07:50:43;;;;;;;15.10;8.32;;;;;;;8.86;100.00;101441.19;6134342;23;20018;-77
2023/03/21 07:53:10;;;;;;;14.75;7.95;;;;;;;8.90;100.00;101432.00;6133390;23;20035;-77
2023/03/21 07:55:37;;;;;;;15.05;8.55;;;;;;;8.91;100.00;101435.41;6133552;23;20077;-77
2023/03/21 07:58:04;;;;;;;15.93;8.57;;;;;;;8.95;100.00;101425.47;6160369;23;20018;-76
2023/03/21 08:00:31;;;;;;;15.43;7.88;;;;;;;8.94;100.00;101414.09;6159515;23;20084;-76
2023/03/21 08:02:59;;;;;;;17.55;8.07;;;;;;;8.95;100.00;101418.25;6134126;23;20022;-78
2023/03/21 08:05:29;;;;;;;17.55;8.65;;;;;;;8.97;100.00;101415.16;6133540;23;20460;-76
2023/03/21 08:07:56;;;;;;;16.95;7.97;;;;;;;9.00;100.00;101422.31;6160543;23;20025;-77
2023/03/21 08:10:23;;;;;;;15.07;9.15;;;;;;;9.02;100.00;101410.13;6158945;23;20021;-74
2023/03/21 08:12:49;;;;;;;13.45;9.35;;;;;;;9.08;100.00;101415.69;6160092;23;20065;-77
2023/03/21 08:15:16;;;;;;;13.18;8.57;;;;;;;9.14;100.00;101418.63;6159673;23;20014;-76
2023/03/21 08:17:46;;;;;;;15.90;7.53;;;;;;;9.13;100.00;101420.53;6160153;23;20013;-77
2023/03/21 08:20:15;;;;;;;14.00;8.23;;;;;;;9.15;100.00;101426.19;6133131;23;20050;-76
2023/03/21 08:22:43;;;;;;;14.77;8.32;;;;;;;9.18;100.00;101419.28;6133347;23;20026;-76
2023/03/21 08:25:14;;;;;;;11.73;8.05;;;;;;;9.20;100.00;101408.97;6159931;23;20024;-76
2023/03/21 08:27:42;;;;;;;13.27;8.23;;;;;;;9.21;100.00;101407.81;6160483;23;20020;-75
2023/03/21 08:30:11;;;;;;;11.68;7.70;;;;;;;9.21;100.00;101405.91;6159643;23;20445;-74
2023/03/21 08:32:38;;;;;;;14.68;8.27;;;;;;;9.25;100.00;101398.59;6160312;23;20018;-75
2023/03/21 08:35:08;;;;;;;12.93;8.05;;;;;;;9.28;100.00;101403.09;6160060;23;20018;-77
2023/03/21 08:37:40;;;;;;;10.65;7.72;;;;;;;9.31;100.00;101398.88;6159653;23;20014;-74
2023/03/21 08:40:12;;;;;;;15.52;7.88;;;;;;;9.37;100.00;101405.19;6159893;23;20433;-74
2023/03/21 08:42:42;;;;;;;13.23;7.60;;;;;;;9.39;100.00;101400.22;6133694;23;20028;-78
2023/03/21 08:45:11;;;;;;;11.80;6.95;;;;;;;9.38;100.00;101412.00;6159589;23;20022;-75
2023/03/21 08:47:37;;;;;;;17.60;7.47;;;;;;;9.39;100.00;101400.22;6159627;23;20014;-75
2023/03/21 08:50:06;;;;;;;15.60;7.40;;;;;;;9.42;100.00;101402.03;6160148;23;20093;-76
2023/03/21 08:52:34;;;;;;;9.00;6.70;;;;;;;9.46;100.00;101396.66;6159575;23;20393;-77
2023/03/21 08:55:01;;;;;;;11.50;7.10;;;;;;;9.47;100.00;101388.25;6133787;23;20030;-76
2023/03/21 08:57:28;;;;;;;15.98;7.35;;;;;;;9.51;100.00;101378.28;6108607;23;20021;-75
2023/03/21 08:59:55;;;;;;;8.23;5.78;;;;;;;9.54;100.00;101376.72;6132987;23;20453;-76
2023/03/21 09:02:21;;;;;;;12.18;6.75;;;;;;;9.55;100.00;101372.91;6159614;23;20102;-75
2023/03/21 09:04:48;;;;;;;10.60;6.25;;;;;;;9.64;100.00;101362.41;6133770;23;20053;-76
2023/03/21 09:07:16;;;;;;;9.57;6.90;;;;;;;9.68;100.00;101371.78;6159364;23;20016;-78
2023/03/21 09:09:42;;;;;;;12.30;6.60;;;;;;;9.68;100.00;101366.47;6160094;23;20018;-76
2023/03/21 09:12:10;;;;;;;11.75;6.38;;;;;;;9.74;100.00;101366.72;6158874;23;20105;-76
2023/03/21 09:14:36;;;;;;;10.05;6.82;;;;;;;9.72;100.00;101360.31;6160034;23;20018;-76
2023/03/21 09:17:03;;;;;;;11.20;6.53;;;;;;;9.73;100.00;101356.50;6160006;23;20025;-78
2023/03/21 09:19:30;;;;;;;8.55;6.30;;;;;;;9.69;100.00;101359.97;6159747;23;20018;-76
2023/03/21 09:21:57;;;;;;;10.48;6.47;;;;;;;9.73;100.00;101361.81;6132933;23;20492;-75
2023/03/21 09:24:25;;;;;;;13.73;6.38;;;;;;;9.77;100.00;101351.84;6159553;23;20014;-78
2023/03/21 09:26:51;;;;;;;11.88;5.85;;;;;;;9.78;100.00;101348.75;6160016;23;20089;-78
2023/03/21 09:29:20;;;;;;;9.30;5.88;;;;;;;9.83;100.00;101350.16;6159614;23;20441;-81
2023/03/21 09:31:47;;;;;;;9.23;5.90;;;;;;;9.84;100.00;101336.44;6133095;23;20435;-79
2023/03/21 09:34:14;;;;;;;8.55;6.13;;;;;;;9.90;100.00;101348.06;6133661;23;20013;-78
2023/03/21 09:36:42;;;;;;;9.65;6.03;;;;;;;9.95;100.00;101341.50;6159530;23;20025;-76
2023/03/21 09:39:10;;;;;;;10.30;5.88;;;;;;;9.94;100.00;101346.06;6159579;23;20431;-77
2023/03/21 09:41:54;;;;;;;9.18;6.10;;;;;;;9.97;100.00;101339.91;6159692;23;20473;-77
2023/03/21 09:45:01;;;;;;;11.23;6.20;;;;;;;10.02;100.00;101341.28;6133647;23;20073;-78
2023/03/21 09:47:33;;;;;;;11.93;6.13;;;;;;;10.07;100.00;101338.13;6159272;23;20437;-77
2023/03/21 09:50:03;;;;;;;12.35;6.85;;;;;;;10.15;100.00;101331.44;6133031;23;20041;-76
2023/03/21 09:52:46;;;;;;;11.18;6.40;;;;;;;10.17;100.00;101333.69;6160236;23;20053;-75
2023/03/21 09:55:18;;;;;;;11.63;6.78;;;;;;;10.19;100.00;101328.69;6159599;23;20014;-76
2023/03/21 09:57:49;;;;;;;11.80;7.05;;;;;;;10.28;100.00;101345.56;6133665;23;20104;-75
2023/03/21 10:00:28;;;;;;;13.05;7.00;;;;;;;10.34;100.00;101329.81;6159378;23;20014;-75
2023/03/21 10:03:00;;;;;;;13.32;6.70;;;;;;;10.36;100.00;101327.50;6133668;23;20098;-75
2023/03/21 10:05:30;;;;;;;8.35;6.93;;;;;;;10.32;100.00;101327.59;6159051;23;20077;-74
2023/03/21 10:08:08;;;;;;;11.05;6.80;;;;;;;10.28;100.00;101328.84;6160087;23;20017;-74
2023/03/21 10:10:44;;;;;;;11.20;7.65;;;;;;;10.28;100.00;101326.94;6159545;23;20022;-73
2023/03/21 10:13:24;;;;;;;19.90;7.45;;;;;;;10.39;100.00;101325.91;6159307;23;20097;-75
2023/03/21 10:15:56;;;;;;;10.77;6.97;;;;;;;10.46;100.00;101325.69;6159565;23;20013;-76
2023/03/21 10:18:26;;;;;;;11.93;6.97;;;;;;;10.61;100.00;101334.75;6159170;23;20069;-75
2023/03/21 10:20:53;;;;;;;9.82;7.18;;;;;;;10.73;100.00;101334.03;6159072;23;20489;-81
2023/03/21 10:23:24;;;;;;;15.57;7.65;;;;;;;10.81;99.52;101340.59;6108565;23;20018;-76
2023/03/21 10:25:57;;;;;;;13.93;6.70;;;;;;;10.80;98.72;101325.06;6160897;23;20022;-75
2023/03/21 10:28:27;;;;;;;10.18;7.55;;;;;;;10.80;98.32;101328.47;6134212;23;20014;-75
2023/03/21 10:31:03;;;;;;;11.82;7.80;;;;;;;10.92;98.35;101326.97;6160451;23;20017;-77
2023/03/21 10:33:34;;;;;;;;;;;;;;;10.98;99.06;101323.34;6160270;23;20026;-76
2023/03/21 10:36:05;;;;;;;16.17;6.88;;;;;;;11.05;98.33;101316.31;6160843;23;19948;-76
2023/03/21 10:38:33;;;;;;;;;;;;;;;11.04;99.28;101312.91;6160704;23;20018;-76
2023/03/21 10:41:00;;;;;;;8.77;6.32;;;;;;;11.05;97.11;101313.66;6134369;23;19920;-75
2023/03/21 10:43:26;;;;;;;9.65;6.13;;;;;;;11.09;97.04;101312.38;6161016;23;20049;-76
2023/03/21 10:45:54;;;;;;;8.65;6.03;;;;;;;11.14;96.85;101301.19;6160279;23;20021;-76
2023/03/21 10:48:21;;;;;;;10.82;6.40;;;;;;;11.29;96.09;101296.13;6134919;23;20093;-76
2023/03/21 10:50:52;;;;;;;10.70;6.60;;;;;;;11.39;95.25;101296.97;6134517;23;20018;-76
2023/03/21 10:53:30;;;;;;;12.65;6.40;;;;;;;11.55;94.78;101300.22;6160316;23;20460;-76
2023/03/21 10:56:00;;;;;;;8.07;6.15;;;;;;;11.61;93.91;101297.72;6160909;23;20014;-77
2023/03/21 10:58:32;;;;;;;12.23;6.63;;;;;;;11.62;94.04;101305.28;6160455;23;20445;-76
2023/03/21 11:01:04;;;;;;;7.45;6.05;;;;;;;11.61;92.97;101316.38;6160802;23;20025;-76
2023/03/21 11:03:36;;;;;;;11.57;6.40;;;;;;;11.61;93.24;101313.72;6159704;23;20026;-76
2023/03/21 11:06:20;;;;;;;11.23;5.60;;;;;;;11.65;92.80;101301.75;6160620;23;20022;-76
2023/03/21 11:08:54;;;;;;;7.43;5.55;;;;;;;11.64;91.88;101294.94;6160460;23;20098;-76
2023/03/21 11:11:34;;;;;;;10.02;5.28;;;;;;;11.69;92.09;101293.63;6160368;23;20022;-78
2023/03/21 11:14:06;;;;;;;8.38;5.47;;;;;;;11.82;91.62;101293.63;6135055;23;20112;-75
2023/03/21 11:16:42;;;;;;;9.95;5.90;;;;;;;11.95;90.91;101303.06;6162689;23;20066;-76
2023/03/21 11:19:19;;;;;;;6.90;5.68;;;;;;;12.02;90.89;101300.13;6162026;23;20084;-78
2023/03/21 11:21:46;;;;;;;10.68;6.32;;;;;;;12.09;90.16;101296.47;6134436;23;20018;-78
2023/03/21 11:24:16;;;;;;;9.40;5.55;;;;;;;12.22;89.42;101304.41;6133521;23;20532;-78
2023/03/21 11:26:46;;;;;;;7.60;5.68;;;;;;;12.37;89.70;101297.38;6162920;23;20475;-77
2023/03/21 11:29:31;;;;;;;9.40;6.00;;;;;;;12.47;88.64;101301.56;6162845;23;20013;-78
2023/03/21 11:32:13;;;;;;;10.63;5.90;;;;;;;12.54;89.06;101295.94;6133133;23;20418;-78
2023/03/21 11:34:46;;;;;;;10.57;6.57;;;;;;;12.69;88.15;101286.22;6109082;23;20476;-78
2023/03/21 11:37:25;;;;;;;11.88;5.75;;;;;;;12.86;86.92;101285.94;6160162;23;20048;-78
2023/03/21 11:40:05;;;;;;;10.48;5.50;;;;;;;12.81;85.91;101289.94;6160355;23;20037;-77